KNPA/NPA METAR and TAF weather

Enter ICAO airport designator
Station Type Date Time Source
KNPA METAR 2019/04/20 18:56 UTC NOAA

KNPA 201856Z 28008G21KT 240V320 10SM CLR 21/02 A2995 RMK AO2 SLP143 T02110017


Station Type Date Time Source
KNPA Decoded METAR 2019/04/20 18:56 UTC NOAA

Pensacola, Naval Air Station, FL, United States (KNPA) 30-21-22N 087-19-24W 10M
Apr 20, 2019 - 02:56 PM EDT / 2019.04.20 1856 UTC
Wind: from the W (280 degrees) at 9 MPH (8 KT) gusting to 24 MPH (21 KT) (direction variable):0
Visibility: 10 mile(s):0
Sky conditions: clear
Temperature: 70.0 F (21.1 C)
Dew Point: 35.1 F (1.7 C)
Relative Humidity: 27%
Pressure (altimeter): 29.95 in. Hg (1014 hPa)
ob: KNPA 201856Z 28008G21KT 240V320 10SM CLR 21/02 A2995 RMK AO2 SLP143 T02110017
cycle: 19

Station Type Date Time Source
KNPA TAF 2019/04/20 17:59 UTC NOAA

TAF COR KNPA 2017/2115 30015G25KT 9999 SKC 540009 540901 542209 543107 QNH2986INS
BECMG 2022/2100 31007KT 500000 QNH2988INS
BECMG 2101/2103 VRB06KT QNH2992INS AUTOMATED SENSOR METWATCH 2015 TIL 2117 T20/2019Z T09/2110Z COR 1655 FN00204

Example: see airport list